sensor_id;sensor_type;location;lat;lon;timestamp;P1;durP1;ratioP1;P2;durP2;ratioP2
37451;SDS011;23314;51.114;6.900;2022-07-29T00:00:57;4.23;;;1.70;;
37451;SDS011;23314;51.114;6.900;2022-07-29T00:03:22;5.10;;;1.83;;
37451;SDS011;23314;51.114;6.900;2022-07-29T00:05:47;4.78;;;1.80;;
37451;SDS011;23314;51.114;6.900;2022-07-29T00:08:13;6.22;;;2.03;;
37451;SDS011;23314;51.114;6.900;2022-07-29T00:10:40;4.85;;;2.30;;
37451;SDS011;23314;51.114;6.900;2022-07-29T00:13:06;8.63;;;2.22;;
37451;SDS011;23314;51.114;6.900;2022-07-29T00:15:31;3.85;;;1.85;;
37451;SDS011;23314;51.114;6.900;2022-07-29T00:17:56;3.28;;;1.95;;
37451;SDS011;23314;51.114;6.900;2022-07-29T00:20:22;3.20;;;2.33;;
37451;SDS011;23314;51.114;6.900;2022-07-29T00:22:47;2.85;;;1.90;;
37451;SDS011;23314;51.114;6.900;2022-07-29T00:25:12;9.03;;;2.10;;
37451;SDS011;23314;51.114;6.900;2022-07-29T00:27:38;2.65;;;1.88;;
37451;SDS011;23314;51.114;6.900;2022-07-29T00:30:04;7.53;;;1.90;;
37451;SDS011;23314;51.114;6.900;2022-07-29T00:32:31;4.53;;;2.00;;
37451;SDS011;23314;51.114;6.900;2022-07-29T00:34:56;5.63;;;2.22;;
37451;SDS011;23314;51.114;6.900;2022-07-29T00:37:40;4.18;;;1.60;;
37451;SDS011;23314;51.114;6.900;2022-07-29T00:40:05;4.63;;;1.77;;
37451;SDS011;23314;51.114;6.900;2022-07-29T00:42:40;6.33;;;2.00;;
37451;SDS011;23314;51.114;6.900;2022-07-29T00:45:13;4.47;;;1.80;;
37451;SDS011;23314;51.114;6.900;2022-07-29T00:47:39;7.28;;;1.88;;
37451;SDS011;23314;51.114;6.900;2022-07-29T00:50:05;3.88;;;1.70;;
37451;SDS011;23314;51.114;6.900;2022-07-29T00:52:32;6.00;;;2.00;;
37451;SDS011;23314;51.114;6.900;2022-07-29T00:54:58;4.15;;;1.73;;
37451;SDS011;23314;51.114;6.900;2022-07-29T00:57:24;5.75;;;2.00;;
37451;SDS011;23314;51.114;6.900;2022-07-29T00:59:49;2.35;;;1.50;;
37451;SDS011;23314;51.114;6.900;2022-07-29T01:02:15;3.73;;;1.77;;
37451;SDS011;23314;51.114;6.900;2022-07-29T01:04:40;5.70;;;2.03;;
37451;SDS011;23314;51.114;6.900;2022-07-29T01:07:06;6.73;;;1.90;;
37451;SDS011;23314;51.114;6.900;2022-07-29T01:09:32;6.28;;;1.60;;
37451;SDS011;23314;51.114;6.900;2022-07-29T01:11:59;9.40;;;2.03;;
37451;SDS011;23314;51.114;6.900;2022-07-29T01:14:26;7.90;;;2.17;;
37451;SDS011;23314;51.114;6.900;2022-07-29T01:17:58;5.50;;;1.98;;
37451;SDS011;23314;51.114;6.900;2022-07-29T01:22:37;5.55;;;1.90;;
37451;SDS011;23314;51.114;6.900;2022-07-29T01:31:15;2.45;;;1.80;;
37451;SDS011;23314;51.114;6.900;2022-07-29T01:33:43;5.82;;;2.05;;
37451;SDS011;23314;51.114;6.900;2022-07-29T01:36:18;2.50;;;1.70;;
37451;SDS011;23314;51.114;6.900;2022-07-29T01:38:54;5.97;;;1.63;;
37451;SDS011;23314;51.114;6.900;2022-07-29T01:41:27;7.90;;;1.83;;
37451;SDS011;23314;51.114;6.900;2022-07-29T01:43:58;4.20;;;1.67;;
37451;SDS011;23314;51.114;6.900;2022-07-29T01:46:30;5.73;;;2.70;;
37451;SDS011;23314;51.114;6.900;2022-07-29T01:49:00;4.25;;;1.85;;
37451;SDS011;23314;51.114;6.900;2022-07-29T01:51:35;3.28;;;1.58;;
37451;SDS011;23314;51.114;6.900;2022-07-29T01:54:10;3.40;;;1.63;;
37451;SDS011;23314;51.114;6.900;2022-07-29T01:56:54;2.60;;;1.83;;
37451;SDS011;23314;51.114;6.900;2022-07-29T01:59:21;4.50;;;1.93;;
37451;SDS011;23314;51.114;6.900;2022-07-29T02:01:49;2.88;;;1.75;;
37451;SDS011;23314;51.114;6.900;2022-07-29T02:04:17;2.60;;;1.67;;
37451;SDS011;23314;51.114;6.900;2022-07-29T02:06:44;4.80;;;1.90;;
37451;SDS011;23314;51.114;6.900;2022-07-29T02:09:11;6.37;;;1.93;;
37451;SDS011;23314;51.114;6.900;2022-07-29T02:11:38;3.45;;;1.90;;
37451;SDS011;23314;51.114;6.900;2022-07-29T02:14:05;5.13;;;2.00;;
37451;SDS011;23314;51.114;6.900;2022-07-29T02:16:32;6.53;;;1.70;;
37451;SDS011;23314;51.114;6.900;2022-07-29T02:19:00;5.60;;;1.80;;
37451;SDS011;23314;51.114;6.900;2022-07-29T02:21:27;7.10;;;2.17;;
37451;SDS011;23314;51.114;6.900;2022-07-29T02:23:54;3.03;;;1.60;;
37451;SDS011;23314;51.114;6.900;2022-07-29T02:26:23;4.43;;;2.00;;
37451;SDS011;23314;51.114;6.900;2022-07-29T02:28:51;6.70;;;2.00;;
37451;SDS011;23314;51.114;6.900;2022-07-29T02:31:19;12.03;;;2.27;;
37451;SDS011;23314;51.114;6.900;2022-07-29T02:33:48;2.47;;;1.50;;
37451;SDS011;23314;51.114;6.900;2022-07-29T02:36:14;3.00;;;1.60;;
37451;SDS011;23314;51.114;6.900;2022-07-29T02:38:41;6.67;;;2.17;;
37451;SDS011;23314;51.114;6.900;2022-07-29T02:41:17;4.17;;;1.70;;
37451;SDS011;23314;51.114;6.900;2022-07-29T02:43:46;5.50;;;1.67;;
37451;SDS011;23314;51.114;6.900;2022-07-29T02:46:14;5.90;;;2.07;;
37451;SDS011;23314;51.114;6.900;2022-07-29T02:48:45;3.37;;;1.83;;
37451;SDS011;23314;51.114;6.900;2022-07-29T02:51:21;3.03;;;2.00;;
37451;SDS011;23314;51.114;6.900;2022-07-29T02:53:51;2.97;;;2.00;;
37451;SDS011;23314;51.114;6.900;2022-07-29T02:56:20;4.47;;;1.97;;
37451;SDS011;23314;51.114;6.900;2022-07-29T02:58:52;4.97;;;1.97;;
37451;SDS011;23314;51.114;6.900;2022-07-29T03:01:22;8.27;;;2.20;;
37451;SDS011;23314;51.114;6.900;2022-07-29T03:03:49;10.30;;;2.20;;
37451;SDS011;23314;51.114;6.900;2022-07-29T03:06:18;7.87;;;2.30;;
37451;SDS011;23314;51.114;6.900;2022-07-29T03:08:45;6.47;;;1.90;;
37451;SDS011;23314;51.114;6.900;2022-07-29T03:11:11;4.00;;;2.13;;
37451;SDS011;23314;51.114;6.900;2022-07-29T03:13:38;5.27;;;1.73;;
37451;SDS011;23314;51.114;6.900;2022-07-29T03:16:04;8.40;;;2.20;;
37451;SDS011;23314;51.114;6.900;2022-07-29T03:18:31;6.67;;;2.00;;
37451;SDS011;23314;51.114;6.900;2022-07-29T03:20:56;7.27;;;2.17;;
37451;SDS011;23314;51.114;6.900;2022-07-29T03:23:22;4.47;;;1.83;;
37451;SDS011;23314;51.114;6.900;2022-07-29T03:25:51;4.90;;;2.50;;
37451;SDS011;23314;51.114;6.900;2022-07-29T03:28:17;7.23;;;2.20;;
37451;SDS011;23314;51.114;6.900;2022-07-29T03:30:43;6.63;;;2.70;;
37451;SDS011;23314;51.114;6.900;2022-07-29T03:33:08;7.63;;;2.87;;
37451;SDS011;23314;51.114;6.900;2022-07-29T03:35:33;6.77;;;2.27;;
37451;SDS011;23314;51.114;6.900;2022-07-29T03:37:59;3.77;;;2.33;;
37451;SDS011;23314;51.114;6.900;2022-07-29T03:40:26;4.10;;;2.23;;
37451;SDS011;23314;51.114;6.900;2022-07-29T03:42:55;8.40;;;2.43;;
37451;SDS011;23314;51.114;6.900;2022-07-29T03:45:21;7.90;;;2.30;;
37451;SDS011;23314;51.114;6.900;2022-07-29T03:47:51;7.13;;;2.67;;
37451;SDS011;23314;51.114;6.900;2022-07-29T03:50:19;4.60;;;2.20;;
37451;SDS011;23314;51.114;6.900;2022-07-29T03:52:46;6.90;;;2.33;;
37451;SDS011;23314;51.114;6.900;2022-07-29T03:55:12;6.93;;;1.97;;
37451;SDS011;23314;51.114;6.900;2022-07-29T03:57:38;6.37;;;2.27;;
37451;SDS011;23314;51.114;6.900;2022-07-29T04:00:05;3.90;;;2.20;;
37451;SDS011;23314;51.114;6.900;2022-07-29T04:02:31;8.83;;;2.87;;
37451;SDS011;23314;51.114;6.900;2022-07-29T04:04:57;10.13;;;2.87;;
37451;SDS011;23314;51.114;6.900;2022-07-29T04:07:23;7.17;;;2.60;;
37451;SDS011;23314;51.114;6.900;2022-07-29T04:09:48;6.23;;;2.60;;
37451;SDS011;23314;51.114;6.900;2022-07-29T04:12:13;9.57;;;2.80;;
37451;SDS011;23314;51.114;6.900;2022-07-29T04:14:38;5.73;;;2.80;;
37451;SDS011;23314;51.114;6.900;2022-07-29T04:17:04;5.13;;;3.17;;
37451;SDS011;23314;51.114;6.900;2022-07-29T04:19:30;10.43;;;3.33;;
37451;SDS011;23314;51.114;6.900;2022-07-29T04:21:55;7.03;;;3.60;;
37451;SDS011;23314;51.114;6.900;2022-07-29T04:24:21;7.97;;;3.37;;
37451;SDS011;23314;51.114;6.900;2022-07-29T04:26:47;6.67;;;2.83;;
37451;SDS011;23314;51.114;6.900;2022-07-29T04:29:12;5.00;;;3.53;;
37451;SDS011;23314;51.114;6.900;2022-07-29T04:31:39;3.33;;;2.43;;
37451;SDS011;23314;51.114;6.900;2022-07-29T04:34:05;7.47;;;2.60;;
37451;SDS011;23314;51.114;6.900;2022-07-29T04:36:30;8.90;;;3.20;;
37451;SDS011;23314;51.114;6.900;2022-07-29T04:38:56;6.57;;;2.47;;
37451;SDS011;23314;51.114;6.900;2022-07-29T04:41:21;4.87;;;2.20;;
37451;SDS011;23314;51.114;6.900;2022-07-29T04:43:46;5.10;;;2.50;;
37451;SDS011;23314;51.114;6.900;2022-07-29T04:46:12;5.43;;;2.30;;
37451;SDS011;23314;51.114;6.900;2022-07-29T04:48:37;5.17;;;2.20;;
37451;SDS011;23314;51.114;6.900;2022-07-29T04:51:02;3.67;;;1.73;;
37451;SDS011;23314;51.114;6.900;2022-07-29T04:53:28;9.57;;;2.30;;
37451;SDS011;23314;51.114;6.900;2022-07-29T04:55:53;6.23;;;2.10;;
37451;SDS011;23314;51.114;6.900;2022-07-29T04:58:19;7.80;;;2.27;;
37451;SDS011;23314;51.114;6.900;2022-07-29T05:00:44;5.97;;;2.33;;
37451;SDS011;23314;51.114;6.900;2022-07-29T05:03:09;8.10;;;2.10;;
37451;SDS011;23314;51.114;6.900;2022-07-29T05:05:35;3.37;;;2.10;;
37451;SDS011;23314;51.114;6.900;2022-07-29T05:08:00;4.63;;;2.30;;
37451;SDS011;23314;51.114;6.900;2022-07-29T05:10:26;9.53;;;1.93;;
37451;SDS011;23314;51.114;6.900;2022-07-29T05:12:51;7.40;;;2.20;;
37451;SDS011;23314;51.114;6.900;2022-07-29T05:15:16;8.77;;;2.17;;
37451;SDS011;23314;51.114;6.900;2022-07-29T05:17:42;8.13;;;2.50;;
37451;SDS011;23314;51.114;6.900;2022-07-29T05:20:08;8.87;;;2.23;;
37451;SDS011;23314;51.114;6.900;2022-07-29T05:22:34;4.50;;;2.00;;
37451;SDS011;23314;51.114;6.900;2022-07-29T05:24:59;4.83;;;2.17;;
37451;SDS011;23314;51.114;6.900;2022-07-29T05:27:24;5.57;;;2.07;;
37451;SDS011;23314;51.114;6.900;2022-07-29T05:29:50;5.03;;;2.10;;
37451;SDS011;23314;51.114;6.900;2022-07-29T05:32:15;11.27;;;2.27;;
37451;SDS011;23314;51.114;6.900;2022-07-29T05:34:41;7.50;;;3.17;;
37451;SDS011;23314;51.114;6.900;2022-07-29T05:37:06;9.83;;;2.50;;
37451;SDS011;23314;51.114;6.900;2022-07-29T05:39:32;10.50;;;2.23;;
37451;SDS011;23314;51.114;6.900;2022-07-29T05:41:57;9.50;;;2.10;;
37451;SDS011;23314;51.114;6.900;2022-07-29T05:44:22;7.60;;;1.90;;
37451;SDS011;23314;51.114;6.900;2022-07-29T05:46:48;7.80;;;3.07;;
37451;SDS011;23314;51.114;6.900;2022-07-29T05:49:13;5.63;;;2.03;;
37451;SDS011;23314;51.114;6.900;2022-07-29T05:51:38;2.37;;;1.87;;
37451;SDS011;23314;51.114;6.900;2022-07-29T05:54:04;4.77;;;1.97;;
37451;SDS011;23314;51.114;6.900;2022-07-29T05:56:29;5.25;;;1.92;;
37451;SDS011;23314;51.114;6.900;2022-07-29T05:58:55;3.60;;;1.90;;
37451;SDS011;23314;51.114;6.900;2022-07-29T06:01:20;3.75;;;1.50;;
37451;SDS011;23314;51.114;6.900;2022-07-29T06:03:45;6.35;;;1.80;;
37451;SDS011;23314;51.114;6.900;2022-07-29T06:06:11;7.05;;;2.42;;
37451;SDS011;23314;51.114;6.900;2022-07-29T06:08:37;4.75;;;1.92;;
37451;SDS011;23314;51.114;6.900;2022-07-29T06:11:03;6.75;;;2.25;;
37451;SDS011;23314;51.114;6.900;2022-07-29T06:13:30;4.15;;;2.05;;
37451;SDS011;23314;51.114;6.900;2022-07-29T06:15:56;15.40;;;2.38;;
37451;SDS011;23314;51.114;6.900;2022-07-29T06:18:21;6.07;;;1.70;;
37451;SDS011;23314;51.114;6.900;2022-07-29T06:20:49;6.82;;;2.03;;
37451;SDS011;23314;51.114;6.900;2022-07-29T06:23:15;10.15;;;2.80;;
37451;SDS011;23314;51.114;6.900;2022-07-29T06:25:41;4.43;;;1.98;;
37451;SDS011;23314;51.114;6.900;2022-07-29T06:28:06;4.68;;;1.92;;
37451;SDS011;23314;51.114;6.900;2022-07-29T06:30:31;6.78;;;2.08;;
37451;SDS011;23314;51.114;6.900;2022-07-29T06:32:57;4.00;;;1.85;;
37451;SDS011;23314;51.114;6.900;2022-07-29T06:35:22;4.35;;;1.98;;
37451;SDS011;23314;51.114;6.900;2022-07-29T06:37:47;7.00;;;2.05;;
37451;SDS011;23314;51.114;6.900;2022-07-29T06:40:13;8.00;;;2.10;;
37451;SDS011;23314;51.114;6.900;2022-07-29T06:42:57;7.43;;;1.95;;
37451;SDS011;23314;51.114;6.900;2022-07-29T06:45:22;10.45;;;2.78;;
37451;SDS011;23314;51.114;6.900;2022-07-29T06:47:47;6.97;;;1.85;;
37451;SDS011;23314;51.114;6.900;2022-07-29T06:50:14;5.97;;;2.25;;
37451;SDS011;23314;51.114;6.900;2022-07-29T06:52:40;4.22;;;1.80;;
37451;SDS011;23314;51.114;6.900;2022-07-29T06:55:06;8.32;;;2.22;;
37451;SDS011;23314;51.114;6.900;2022-07-29T06:57:32;7.07;;;2.30;;
37451;SDS011;23314;51.114;6.900;2022-07-29T06:59:57;7.82;;;2.72;;
37451;SDS011;23314;51.114;6.900;2022-07-29T07:02:22;7.65;;;2.47;;
37451;SDS011;23314;51.114;6.900;2022-07-29T07:04:48;9.57;;;2.20;;
37451;SDS011;23314;51.114;6.900;2022-07-29T07:07:13;2.35;;;1.75;;
37451;SDS011;23314;51.114;6.900;2022-07-29T07:09:39;6.22;;;2.00;;
37451;SDS011;23314;51.114;6.900;2022-07-29T07:12:04;7.57;;;2.10;;
37451;SDS011;23314;51.114;6.900;2022-07-29T07:14:30;6.63;;;2.63;;
37451;SDS011;23314;51.114;6.900;2022-07-29T07:16:55;6.07;;;2.42;;
37451;SDS011;23314;51.114;6.900;2022-07-29T07:19:20;4.82;;;1.95;;
37451;SDS011;23314;51.114;6.900;2022-07-29T07:21:46;3.47;;;2.35;;
37451;SDS011;23314;51.114;6.900;2022-07-29T07:24:11;3.78;;;2.53;;
37451;SDS011;23314;51.114;6.900;2022-07-29T07:26:36;5.82;;;2.70;;
37451;SDS011;23314;51.114;6.900;2022-07-29T07:29:03;8.93;;;2.72;;
37451;SDS011;23314;51.114;6.900;2022-07-29T07:31:28;9.23;;;2.83;;
37451;SDS011;23314;51.114;6.900;2022-07-29T07:33:53;3.73;;;2.90;;
37451;SDS011;23314;51.114;6.900;2022-07-29T07:36:19;7.37;;;3.30;;
37451;SDS011;23314;51.114;6.900;2022-07-29T07:38:44;6.20;;;3.57;;
37451;SDS011;23314;51.114;6.900;2022-07-29T07:41:09;10.37;;;4.00;;
37451;SDS011;23314;51.114;6.900;2022-07-29T07:43:35;6.53;;;3.27;;
37451;SDS011;23314;51.114;6.900;2022-07-29T07:46:00;9.90;;;3.90;;
37451;SDS011;23314;51.114;6.900;2022-07-29T07:48:25;7.00;;;3.80;;
37451;SDS011;23314;51.114;6.900;2022-07-29T07:50:51;7.47;;;3.50;;
37451;SDS011;23314;51.114;6.900;2022-07-29T07:53:16;9.57;;;3.70;;
37451;SDS011;23314;51.114;6.900;2022-07-29T07:55:42;9.77;;;3.70;;
37451;SDS011;23314;51.114;6.900;2022-07-29T07:58:08;6.70;;;3.83;;
37451;SDS011;23314;51.114;6.900;2022-07-29T08:00:34;6.90;;;3.60;;
37451;SDS011;23314;51.114;6.900;2022-07-29T08:02:59;6.77;;;3.80;;
37451;SDS011;23314;51.114;6.900;2022-07-29T08:05:25;7.87;;;3.93;;
37451;SDS011;23314;51.114;6.900;2022-07-29T08:07:50;7.10;;;4.30;;
37451;SDS011;23314;51.114;6.900;2022-07-29T08:10:16;5.37;;;3.60;;
37451;SDS011;23314;51.114;6.900;2022-07-29T08:13:04;6.53;;;3.60;;
37451;SDS011;23314;51.114;6.900;2022-07-29T08:15:31;5.33;;;3.20;;
37451;SDS011;23314;51.114;6.900;2022-07-29T08:17:56;8.77;;;3.97;;
37451;SDS011;23314;51.114;6.900;2022-07-29T08:20:21;9.03;;;4.07;;
37451;SDS011;23314;51.114;6.900;2022-07-29T08:22:47;5.87;;;4.00;;
37451;SDS011;23314;51.114;6.900;2022-07-29T08:25:12;10.57;;;3.70;;
37451;SDS011;23314;51.114;6.900;2022-07-29T08:27:37;8.30;;;3.73;;
37451;SDS011;23314;51.114;6.900;2022-07-29T08:30:03;6.63;;;3.77;;
37451;SDS011;23314;51.114;6.900;2022-07-29T08:32:28;10.93;;;3.80;;
37451;SDS011;23314;51.114;6.900;2022-07-29T08:34:54;10.47;;;4.73;;
37451;SDS011;23314;51.114;6.900;2022-07-29T08:37:19;9.93;;;4.40;;
37451;SDS011;23314;51.114;6.900;2022-07-29T08:39:45;12.60;;;4.00;;
37451;SDS011;23314;51.114;6.900;2022-07-29T08:42:10;9.53;;;4.00;;
37451;SDS011;23314;51.114;6.900;2022-07-29T08:44:36;8.13;;;3.70;;
37451;SDS011;23314;51.114;6.900;2022-07-29T08:47:02;8.57;;;4.40;;
37451;SDS011;23314;51.114;6.900;2022-07-29T08:49:27;10.37;;;4.10;;
37451;SDS011;23314;51.114;6.900;2022-07-29T08:51:53;10.30;;;4.17;;
37451;SDS011;23314;51.114;6.900;2022-07-29T08:54:18;11.27;;;4.37;;
37451;SDS011;23314;51.114;6.900;2022-07-29T08:56:50;8.23;;;4.27;;
37451;SDS011;23314;51.114;6.900;2022-07-29T08:59:17;14.30;;;4.47;;
37451;SDS011;23314;51.114;6.900;2022-07-29T09:01:46;12.00;;;4.57;;
37451;SDS011;23314;51.114;6.900;2022-07-29T09:04:12;15.30;;;4.40;;
37451;SDS011;23314;51.114;6.900;2022-07-29T09:06:42;11.33;;;4.57;;
37451;SDS011;23314;51.114;6.900;2022-07-29T09:09:10;10.70;;;4.17;;
37451;SDS011;23314;51.114;6.900;2022-07-29T09:11:36;7.17;;;3.67;;
37451;SDS011;23314;51.114;6.900;2022-07-29T09:14:02;6.63;;;4.00;;
37451;SDS011;23314;51.114;6.900;2022-07-29T09:16:43;12.77;;;4.55;;
37451;SDS011;23314;51.114;6.900;2022-07-29T09:19:28;11.03;;;4.73;;
37451;SDS011;23314;51.114;6.900;2022-07-29T09:21:57;7.97;;;4.45;;
37451;SDS011;23314;51.114;6.900;2022-07-29T09:24:26;10.40;;;4.67;;
37451;SDS011;23314;51.114;6.900;2022-07-29T09:27:00;8.80;;;4.50;;
37451;SDS011;23314;51.114;6.900;2022-07-29T09:29:26;10.10;;;4.43;;
37451;SDS011;23314;51.114;6.900;2022-07-29T09:31:53;12.35;;;5.00;;
37451;SDS011;23314;51.114;6.900;2022-07-29T09:34:26;12.70;;;5.60;;
37451;SDS011;23314;51.114;6.900;2022-07-29T09:36:56;9.55;;;5.43;;
37451;SDS011;23314;51.114;6.900;2022-07-29T09:39:32;9.35;;;5.00;;
37451;SDS011;23314;51.114;6.900;2022-07-29T09:42:03;7.18;;;4.90;;
37451;SDS011;23314;51.114;6.900;2022-07-29T09:44:43;7.28;;;4.57;;
37451;SDS011;23314;51.114;6.900;2022-07-29T09:47:13;7.90;;;4.88;;
37451;SDS011;23314;51.114;6.900;2022-07-29T09:49:56;7.57;;;4.63;;
37451;SDS011;23314;51.114;6.900;2022-07-29T09:52:29;6.97;;;5.18;;
37451;SDS011;23314;51.114;6.900;2022-07-29T09:55:07;23.08;;;5.43;;
37451;SDS011;23314;51.114;6.900;2022-07-29T09:57:34;14.32;;;5.07;;
37451;SDS011;23314;51.114;6.900;2022-07-29T10:00:00;10.13;;;4.95;;
37451;SDS011;23314;51.114;6.900;2022-07-29T10:02:33;10.57;;;5.28;;
37451;SDS011;23314;51.114;6.900;2022-07-29T10:05:00;7.15;;;4.78;;
37451;SDS011;23314;51.114;6.900;2022-07-29T10:07:42;8.27;;;4.25;;
37451;SDS011;23314;51.114;6.900;2022-07-29T10:10:09;10.65;;;4.97;;
37451;SDS011;23314;51.114;6.900;2022-07-29T10:12:34;9.93;;;4.72;;
37451;SDS011;23314;51.114;6.900;2022-07-29T10:15:13;12.27;;;4.60;;
37451;SDS011;23314;51.114;6.900;2022-07-29T10:17:40;7.13;;;4.03;;
37451;SDS011;23314;51.114;6.900;2022-07-29T10:20:06;16.98;;;4.72;;
37451;SDS011;23314;51.114;6.900;2022-07-29T10:22:33;9.98;;;4.50;;
37451;SDS011;23314;51.114;6.900;2022-07-29T10:24:59;9.43;;;4.40;;
37451;SDS011;23314;51.114;6.900;2022-07-29T10:27:24;10.73;;;4.53;;
37451;SDS011;23314;51.114;6.900;2022-07-29T10:29:50;8.43;;;4.30;;
37451;SDS011;23314;51.114;6.900;2022-07-29T10:38:02;9.18;;;4.18;;
37451;SDS011;23314;51.114;6.900;2022-07-29T10:41:00;11.75;;;4.43;;
37451;SDS011;23314;51.114;6.900;2022-07-29T10:43:53;7.45;;;4.03;;
37451;SDS011;23314;51.114;6.900;2022-07-29T10:46:34;8.30;;;4.00;;
37451;SDS011;23314;51.114;6.900;2022-07-29T10:49:07;6.50;;;3.88;;
37451;SDS011;23314;51.114;6.900;2022-07-29T10:51:50;7.88;;;4.07;;
37451;SDS011;23314;51.114;6.900;2022-07-29T10:54:43;7.20;;;3.80;;
37451;SDS011;23314;51.114;6.900;2022-07-29T10:59:41;5.70;;;3.83;;
37451;SDS011;23314;51.114;6.900;2022-07-29T11:07:21;8.18;;;3.90;;
37451;SDS011;23314;51.114;6.900;2022-07-29T11:15:06;10.60;;;3.83;;
37451;SDS011;23314;51.114;6.900;2022-07-29T11:20:33;9.48;;;3.70;;
37451;SDS011;23314;51.114;6.900;2022-07-29T11:22:59;9.90;;;4.30;;
37451;SDS011;23314;51.114;6.900;2022-07-29T11:25:25;6.38;;;3.58;;
37451;SDS011;23314;51.114;6.900;2022-07-29T11:27:54;7.40;;;3.40;;
37451;SDS011;23314;51.114;6.900;2022-07-29T11:30:46;5.93;;;3.70;;
37451;SDS011;23314;51.114;6.900;2022-07-29T11:33:29;8.23;;;3.30;;
37451;SDS011;23314;51.114;6.900;2022-07-29T11:36:11;5.60;;;3.35;;
37451;SDS011;23314;51.114;6.900;2022-07-29T11:38:38;6.85;;;3.05;;
37451;SDS011;23314;51.114;6.900;2022-07-29T11:46:12;12.90;;;3.13;;
37451;SDS011;23314;51.114;6.900;2022-07-29T11:48:41;5.03;;;2.95;;
37451;SDS011;23314;51.114;6.900;2022-07-29T11:51:11;7.50;;;3.53;;
37451;SDS011;23314;51.114;6.900;2022-07-29T11:53:37;4.05;;;3.05;;
37451;SDS011;23314;51.114;6.900;2022-07-29T11:56:04;7.00;;;3.00;;
37451;SDS011;23314;51.114;6.900;2022-07-29T11:58:33;4.95;;;2.75;;
37451;SDS011;23314;51.114;6.900;2022-07-29T12:00:59;5.30;;;2.83;;
37451;SDS011;23314;51.114;6.900;2022-07-29T12:03:25;5.80;;;2.58;;
37451;SDS011;23314;51.114;6.900;2022-07-29T12:05:52;10.25;;;2.88;;
37451;SDS011;23314;51.114;6.900;2022-07-29T12:08:19;7.03;;;2.97;;
37451;SDS011;23314;51.114;6.900;2022-07-29T12:10:47;5.18;;;2.33;;
37451;SDS011;23314;51.114;6.900;2022-07-29T12:13:17;3.58;;;2.53;;
37451;SDS011;23314;51.114;6.900;2022-07-29T12:15:53;5.78;;;2.25;;
37451;SDS011;23314;51.114;6.900;2022-07-29T12:18:21;5.32;;;2.63;;
37451;SDS011;23314;51.114;6.900;2022-07-29T12:20:47;6.40;;;2.70;;
37451;SDS011;23314;51.114;6.900;2022-07-29T12:23:13;8.07;;;2.70;;
37451;SDS011;23314;51.114;6.900;2022-07-29T12:25:40;3.85;;;2.53;;
37451;SDS011;23314;51.114;6.900;2022-07-29T12:28:11;4.32;;;2.45;;
37451;SDS011;23314;51.114;6.900;2022-07-29T12:30:44;4.68;;;2.35;;
37451;SDS011;23314;51.114;6.900;2022-07-29T12:36:01;5.85;;;2.47;;
37451;SDS011;23314;51.114;6.900;2022-07-29T12:38:28;6.07;;;2.42;;
37451;SDS011;23314;51.114;6.900;2022-07-29T12:40:54;6.45;;;2.63;;
37451;SDS011;23314;51.114;6.900;2022-07-29T12:43:23;5.75;;;2.88;;
37451;SDS011;23314;51.114;6.900;2022-07-29T12:45:54;6.28;;;2.75;;
37451;SDS011;23314;51.114;6.900;2022-07-29T12:48:33;7.05;;;2.60;;
37451;SDS011;23314;51.114;6.900;2022-07-29T12:51:03;6.28;;;2.20;;
37451;SDS011;23314;51.114;6.900;2022-07-29T12:53:31;4.40;;;2.42;;
37451;SDS011;23314;51.114;6.900;2022-07-29T12:55:57;6.68;;;2.60;;
37451;SDS011;23314;51.114;6.900;2022-07-29T12:58:33;7.90;;;2.47;;
37451;SDS011;23314;51.114;6.900;2022-07-29T13:01:13;6.13;;;2.95;;
37451;SDS011;23314;51.114;6.900;2022-07-29T13:04:02;5.03;;;2.47;;
37451;SDS011;23314;51.114;6.900;2022-07-29T13:11:32;8.88;;;4.18;;
37451;SDS011;23314;51.114;6.900;2022-07-29T13:13:59;8.27;;;4.32;;
37451;SDS011;23314;51.114;6.900;2022-07-29T13:16:25;8.38;;;4.05;;
37451;SDS011;23314;51.114;6.900;2022-07-29T13:19:02;5.60;;;4.10;;
37451;SDS011;23314;51.114;6.900;2022-07-29T13:21:38;8.75;;;3.85;;
37451;SDS011;23314;51.114;6.900;2022-07-29T13:24:07;5.63;;;3.80;;
37451;SDS011;23314;51.114;6.900;2022-07-29T13:26:33;11.65;;;3.60;;
37451;SDS011;23314;51.114;6.900;2022-07-29T13:28:59;9.02;;;3.65;;
37451;SDS011;23314;51.114;6.900;2022-07-29T13:31:24;8.20;;;3.10;;
37451;SDS011;23314;51.114;6.900;2022-07-29T13:33:50;15.48;;;4.30;;
37451;SDS011;23314;51.114;6.900;2022-07-29T13:36:15;15.13;;;4.70;;
37451;SDS011;23314;51.114;6.900;2022-07-29T13:38:41;10.90;;;4.90;;
37451;SDS011;23314;51.114;6.900;2022-07-29T13:41:07;12.35;;;4.13;;
37451;SDS011;23314;51.114;6.900;2022-07-29T13:43:32;12.45;;;4.57;;
37451;SDS011;23314;51.114;6.900;2022-07-29T13:45:57;7.97;;;4.13;;
37451;SDS011;23314;51.114;6.900;2022-07-29T13:48:23;11.13;;;3.88;;
37451;SDS011;23314;51.114;6.900;2022-07-29T13:50:48;8.07;;;3.95;;
37451;SDS011;23314;51.114;6.900;2022-07-29T13:53:13;7.68;;;3.95;;
37451;SDS011;23314;51.114;6.900;2022-07-29T13:55:39;11.07;;;3.33;;
37451;SDS011;23314;51.114;6.900;2022-07-29T13:58:04;8.15;;;3.65;;
37451;SDS011;23314;51.114;6.900;2022-07-29T14:00:29;8.68;;;3.00;;
37451;SDS011;23314;51.114;6.900;2022-07-29T14:02:56;6.97;;;3.75;;
37451;SDS011;23314;51.114;6.900;2022-07-29T14:05:21;7.80;;;4.00;;
37451;SDS011;23314;51.114;6.900;2022-07-29T14:07:46;7.80;;;3.60;;
37451;SDS011;23314;51.114;6.900;2022-07-29T14:10:12;5.38;;;3.42;;
37451;SDS011;23314;51.114;6.900;2022-07-29T14:12:37;8.98;;;3.58;;
37451;SDS011;23314;51.114;6.900;2022-07-29T14:15:03;6.85;;;3.35;;
37451;SDS011;23314;51.114;6.900;2022-07-29T14:17:28;7.75;;;3.45;;
37451;SDS011;23314;51.114;6.900;2022-07-29T14:19:54;7.93;;;3.47;;
37451;SDS011;23314;51.114;6.900;2022-07-29T14:22:19;8.05;;;3.33;;
37451;SDS011;23314;51.114;6.900;2022-07-29T14:24:45;4.22;;;3.30;;
37451;SDS011;23314;51.114;6.900;2022-07-29T14:27:10;6.53;;;3.35;;
37451;SDS011;23314;51.114;6.900;2022-07-29T14:29:36;13.38;;;3.28;;
37451;SDS011;23314;51.114;6.900;2022-07-29T14:32:02;6.43;;;3.63;;
37451;SDS011;23314;51.114;6.900;2022-07-29T14:34:27;8.43;;;3.53;;
37451;SDS011;23314;51.114;6.900;2022-07-29T14:36:53;10.38;;;4.20;;
37451;SDS011;23314;51.114;6.900;2022-07-29T14:39:21;10.73;;;3.88;;
37451;SDS011;23314;51.114;6.900;2022-07-29T14:41:48;10.45;;;3.90;;
37451;SDS011;23314;51.114;6.900;2022-07-29T14:44:13;13.07;;;3.83;;
37451;SDS011;23314;51.114;6.900;2022-07-29T14:46:39;7.68;;;4.07;;
37451;SDS011;23314;51.114;6.900;2022-07-29T14:49:04;11.27;;;4.18;;
37451;SDS011;23314;51.114;6.900;2022-07-29T14:51:30;7.40;;;3.65;;
37451;SDS011;23314;51.114;6.900;2022-07-29T14:53:56;8.65;;;3.42;;
37451;SDS011;23314;51.114;6.900;2022-07-29T14:56:21;5.47;;;2.97;;
37451;SDS011;23314;51.114;6.900;2022-07-29T14:58:48;10.82;;;2.90;;
37451;SDS011;23314;51.114;6.900;2022-07-29T15:01:13;6.80;;;3.00;;
37451;SDS011;23314;51.114;6.900;2022-07-29T15:03:39;8.07;;;2.80;;
37451;SDS011;23314;51.114;6.900;2022-07-29T15:06:04;11.02;;;3.70;;
37451;SDS011;23314;51.114;6.900;2022-07-29T15:08:30;6.47;;;3.05;;
37451;SDS011;23314;51.114;6.900;2022-07-29T15:10:56;7.60;;;3.25;;
37451;SDS011;23314;51.114;6.900;2022-07-29T15:13:24;7.97;;;3.00;;
37451;SDS011;23314;51.114;6.900;2022-07-29T15:15:50;9.60;;;3.80;;
37451;SDS011;23314;51.114;6.900;2022-07-29T15:18:16;12.13;;;4.78;;
37451;SDS011;23314;51.114;6.900;2022-07-29T15:20:42;8.43;;;4.25;;
37451;SDS011;23314;51.114;6.900;2022-07-29T15:23:07;8.02;;;3.40;;
37451;SDS011;23314;51.114;6.900;2022-07-29T15:25:34;6.78;;;3.75;;
37451;SDS011;23314;51.114;6.900;2022-07-29T15:28:01;6.22;;;3.60;;
37451;SDS011;23314;51.114;6.900;2022-07-29T15:30:29;8.90;;;3.38;;
37451;SDS011;23314;51.114;6.900;2022-07-29T15:32:55;7.65;;;3.80;;